Aérodrome :
LOGIN :

S'inscrire | Disclaimer

   EN    FR    IT 

 










Légende :    VFR   VFR Marginal   IFR   IFR Intensif   IFR Très Intensif
Visi : 
Plafond : 
>= 8 km
>= 3000ft
5 à 8 km
1000 à 3000 ft
1500m à 5 km
500 à 1000 ft
800 à 1500m
200 à 500 ft
< 800m
< 200 ft
Symboles :   Orages  Brouillard  Fortes neiges  Fortes précipitations  Vent > 20 kt
SIGMETs :   Divers  Orages  Givrage  Turbulence  Onde Orograph.  Cendres Volcan.







- Altitude de l'aérodrome : 650 ft
- Code IATA : ZJI


LSZL - Locarno

DERNIER METAR :
  • 221020Z AUTO 26008KT 9999NDV FEW130 18/10 Q1013 RMK

METARs EXPIRÉS :
  • 220950Z 25006KT 9999 FEW100 18/11 Q1013 RMK BLU+
  • 220920Z 24006KT 9999 FEW090 17/10 Q1013 RMK BLU+
  • 220850Z 24004KT 210V280 9999 SCT130 18/11 Q1013 RMK BLU+
  • 220820Z 25004KT 9999 SCT130 17/11 Q1013 RMK BLU+
  • 220750Z 08004KT 050V120 9999 FEW080 SCT130 17/10 Q1014 RMK BLU+

TAF TAF LSZL
Valide du 22 à 06h jusqu'au 22 à 15h UTC


220525Z 2206/2215 VRB02KT CAVOK
PROB40
TEMPO 2212/2215 9999 FEW060
Pas de NOTAMs connus pour ce terrain.



MET'MAP, la Météo Aéronautique d'un coup d'oeil ! - Copyright ORBIFLY Décembre 2007 - Disclaimer

ORBIFLY MET'MAP TEAM :

Programmation & Développement : Alexandra Zaïnal
Conception & Développement : Baudouin d'Aumeries
Co-Programmation & Développement : Marc-Olivier Méhu
Soutien technique & logistique : Manuel Goepfert

Contact : metmap@orbifly.com




SOURCES & CREDITS :

   NOAA